Tonasket, Washington
Current Conditions -  °F | °C
As of 9:31 AM on Wednesday 26 Nov 2014 (Local Time) from KOMK Reporting Station
Haze Haze  
Wind Chill: 25°   Ceiling: 1800
Heat Index: 33°   Visibility: 3mi
Dew Point: 32°   Wind: 9mph
Humidity: 96%   Direction: 190°S
Pressure: 30.18"   Gusts: NA
Location:  48.71°N, 119.44°W
Report Text: KOMK 261731Z AUTO 19008KT 3SM BR SCT003 BKN018 OVC030 01/00 A3018 RMK AO2 T00060000
Loading
Personal Weather Stations






























Interactive Weather Map New forecast layout! Learn more

10-Day Weather Forecast

Advertisements
Track Severe Weather on mobile